Time;durP1;ratioP1;P1;durP2;ratioP2;P2;SDS_P1;SDS_P2;PMS_P1;PMS_P2;Temp;Humidity;BMP_temperature;BMP_pressure;BME280_temperature;BME280_humidity;BME280_pressure;Samples;Min_cycle;Max_cycle;Signal;HPM_P1;HPM_P2
2021/04/19 00:00:22;;;;;;;15.65;12.23;;;281.70;2022.40;;;;;;5095687;28;20081;-65
2021/04/19 00:02:48;;;;;;;16.70;12.75;;;281.70;2022.40;;;;;;5095228;28;20397;-65
2021/04/19 00:05:16;;;;;;;16.65;12.43;;;281.70;1996.80;;;;;;5095438;28;20016;-65
2021/04/19 00:07:42;;;;;;;14.00;10.77;;;281.70;1996.80;;;;;;5095329;28;20052;-66
2021/04/19 00:10:09;;;;;;;15.52;11.30;;;281.70;1996.80;;;;;;5095212;28;20027;-65
2021/04/19 00:12:35;;;;;;;14.98;11.82;;;281.80;1996.80;;;;;;5095302;28;20028;-65
2021/04/19 00:15:01;;;;;;;18.95;13.68;;;281.70;2022.40;;;;;;5095196;28;20024;-66
2021/04/19 00:17:26;;;;;;;19.80;13.30;;;281.80;1996.80;;;;;;5095141;28;20028;-65
2021/04/19 00:19:52;;;;;;;19.33;13.88;;;281.80;2022.40;;;;;;5095204;28;20464;-65
2021/04/19 00:22:18;;;;;;;18.00;12.25;;;281.80;2022.40;;;;;;5095040;28;20043;-65
2021/04/19 00:24:44;;;;;;;22.23;13.27;;;281.80;1996.80;;;;;;5094966;28;20419;-66
2021/04/19 00:27:09;;;;;;;17.08;12.90;;;281.80;2022.40;;;;;;5094605;28;20093;-65
2021/04/19 00:29:35;;;;;;;17.10;12.52;;;281.80;2022.40;;;;;;5094345;28;20473;-66
2021/04/19 00:32:01;;;;;;;19.40;13.45;;;281.80;1996.80;;;;;;5094771;28;20050;-67
2021/04/19 00:34:27;;;;;;;18.35;12.77;;;281.80;2022.40;;;;;;5094807;28;20115;-66
2021/04/19 00:36:53;;;;;;;17.48;12.25;;;281.70;2022.40;;;;;;5095051;28;20024;-66
2021/04/19 00:39:18;;;;;;;16.42;12.77;;;281.80;2022.40;;;;;;5094688;28;20427;-67
2021/04/19 00:41:45;;;;;;;21.75;15.18;;;281.70;2022.40;;;;;;5094621;28;20036;-68
2021/04/19 00:44:11;;;;;;;21.63;15.43;;;281.70;2022.40;;;;;;5094545;28;20016;-66
2021/04/19 00:46:37;;;;;;;22.13;14.07;;;281.70;2022.40;;;;;;5094553;28;20453;-65
2021/04/19 00:49:03;;;;;;;22.85;15.30;;;281.80;2022.40;;;;;;5094443;28;20062;-65
2021/04/19 00:51:29;;;;;;;20.88;15.05;;;281.70;2022.40;;;;;;5094464;28;20016;-66
2021/04/19 00:53:55;;;;;;;21.00;14.27;;;281.80;2022.40;;;;;;5094580;28;20038;-66
2021/04/19 00:56:22;;;;;;;21.73;14.25;;;281.80;2022.40;;;;;;5094178;28;20099;-66
2021/04/19 00:58:48;;;;;;;18.05;13.15;;;281.80;2022.40;;;;;;5093801;28;20481;-66
2021/04/19 01:01:15;;;;;;;20.33;13.60;;;281.80;2022.40;;;;;;5094260;28;20074;-66
2021/04/19 01:03:42;;;;;;;17.00;12.98;;;281.80;2022.40;;;;;;5094149;28;20028;-66
2021/04/19 01:06:09;;;;;;;17.30;12.30;;;281.80;2022.40;;;;;;5094630;28;20523;-66
2021/04/19 01:08:34;;;;;;;17.25;12.18;;;281.80;2022.40;;;;;;5093594;28;20034;-66
2021/04/19 01:11:00;;;;;;;19.67;12.27;;;281.80;2022.40;;;;;;5094045;28;20107;-66
2021/04/19 01:13:26;;;;;;;14.90;12.23;;;281.80;2022.40;;;;;;5094048;28;20420;-66
2021/04/19 01:15:52;;;;;;;15.82;12.07;;;281.80;2022.40;;;;;;5094146;28;20016;-66
2021/04/19 01:18:18;;;;;;;17.55;13.13;;;281.80;2022.40;;;;;;5093983;28;20446;-65
2021/04/19 01:20:51;;;;;;;20.45;13.02;;;281.80;2022.40;;;;;;5094168;28;20076;-66
2021/04/19 01:23:17;;;;;;;19.50;12.95;;;281.80;2022.40;;;;;;5094021;28;20040;-66
2021/04/19 01:25:44;;;;;;;22.50;14.25;;;281.80;1996.80;;;;;;5093938;28;20126;-66
2021/04/19 01:28:11;;;;;;;16.60;13.48;;;281.80;1996.80;;;;;;5094221;28;20036;-66
2021/04/19 01:30:46;;;;;;;20.42;13.20;;;281.80;2022.40;;;;;;5094101;28;20024;-66
2021/04/19 01:33:12;;;;;;;17.70;13.93;;;281.90;1996.80;;;;;;5093776;28;20466;-66
2021/04/19 01:35:41;;;;;;;18.65;14.35;;;281.90;2022.40;;;;;;5093982;28;20464;-65
2021/04/19 01:38:27;;;;;;;20.65;14.43;;;281.90;2022.40;;;;;;5031528;28;20076;-65
2021/04/19 01:40:56;;;;;;;21.80;15.18;;;281.90;1996.80;;;;;;5031523;28;20495;-64
2021/04/19 01:43:23;;;;;;;18.35;14.73;;;281.80;2022.40;;;;;;5031264;28;20111;-65
2021/04/19 01:45:49;;;;;;;18.33;14.52;;;281.80;2022.40;;;;;;5031518;28;20372;-65
2021/04/19 01:48:16;;;;;;;17.63;13.43;;;281.80;2022.40;;;;;;5031583;28;20033;-64
2021/04/19 01:50:42;;;;;;;19.92;12.18;;;281.70;2022.40;;;;;;5031948;28;20037;-66
2021/04/19 01:53:07;;;;;;;14.98;11.73;;;281.70;2022.40;;;;;;5031637;28;20030;-67
2021/04/19 01:55:34;;;;;;;13.52;11.07;;;281.70;2022.40;;;;;;5031324;28;20064;-66
2021/04/19 01:58:14;;;;;;;12.57;10.52;;;281.70;2022.40;;;;;;5031412;28;20068;-66
2021/04/19 02:00:43;;;;;;;13.07;9.95;;;281.60;2022.40;;;;;;5031399;28;20026;-66
2021/04/19 02:03:19;;;;;;;10.48;9.38;;;281.60;2022.40;;;;;;5031319;28;20065;-67
2021/04/19 02:06:09;;;;;;;15.90;10.38;;;281.60;2022.40;;;;;;5031499;28;20049;-65
2021/04/19 02:08:48;;;;;;;13.45;10.20;;;281.70;2022.40;;;;;;5031188;28;20406;-65
2021/04/19 02:11:16;;;;;;;15.95;10.13;;;281.70;2022.40;;;;;;5031438;28;20030;-65
2021/04/19 02:14:13;;;;;;;15.63;10.40;;;281.70;2022.40;;;;;;5031357;28;20060;-65
2021/04/19 02:16:52;;;;;;;15.38;10.82;;;281.70;2022.40;;;;;;5004725;28;20365;-66
2021/04/19 02:19:40;;;;;;;13.23;10.73;;;281.70;2022.40;;;;;;5011858;28;20030;-65
2021/04/19 02:22:09;;;;;;;13.93;10.23;;;281.70;2022.40;;;;;;5015104;28;20073;-65
2021/04/19 02:24:40;;;;;;;14.93;10.90;;;281.70;2022.40;;;;;;5015097;28;20026;-65
2021/04/19 02:27:11;;;;;;;20.23;14.20;;;281.60;2022.40;;;;;;5014937;28;20488;-65
2021/04/19 02:29:40;;;;;;;23.38;16.48;;;281.60;2022.40;;;;;;5015100;28;20053;-65
2021/04/19 02:32:34;;;;;;;30.13;17.17;;;281.60;2022.40;;;;;;5015218;28;20033;-65
2021/04/19 02:35:04;;;;;;;27.92;16.20;;;281.60;2048.00;;;;;;5014946;28;20041;-64
2021/04/19 02:37:32;;;;;;;25.05;17.23;;;281.60;2022.40;;;;;;5014823;28;20022;-65
2021/04/19 02:40:00;;;;;;;26.95;15.35;;;281.70;2022.40;;;;;;5014965;28;20042;-65
2021/04/19 02:42:28;;;;;;;21.67;14.75;;;281.70;2022.40;;;;;;5014713;28;20117;-65
2021/04/19 02:44:54;;;;;;;17.52;14.00;;;281.70;2022.40;;;;;;5014966;28;20603;-64
2021/04/19 02:47:22;;;;;;;21.25;13.32;;;281.70;2022.40;;;;;;5014801;28;20062;-66
2021/04/19 02:49:49;;;;;;;25.77;13.45;;;281.70;2022.40;;;;;;5014654;28;20036;-67
2021/04/19 02:52:16;;;;;;;24.35;15.15;;;281.70;2022.40;;;;;;5014607;28;20034;-67
2021/04/19 02:54:44;;;;;;;28.17;15.43;;;281.80;2022.40;;;;;;5096709;28;20024;-67
2021/04/19 02:57:24;;;;;;;26.35;15.60;;;281.70;2022.40;;;;;;5096431;28;20031;-70
2021/04/19 02:59:52;;;;;;;23.15;15.05;;;281.70;2073.60;;;;;;5078600;28;20465;-70
2021/04/19 03:02:22;;;;;;;28.95;17.67;;;281.70;2048.00;;;;;;5078331;28;20495;-70
2021/04/19 03:04:48;;;;;;;23.83;17.27;;;281.70;2048.00;;;;;;5096397;28;20028;-69
2021/04/19 03:07:16;;;;;;;27.80;16.65;;;281.70;2022.40;;;;;;5096574;28;20103;-70
2021/04/19 03:09:51;;;;;;;20.20;15.68;;;281.70;2022.40;;;;;;5096654;28;20111;-69
2021/04/19 03:12:20;;;;;;;23.75;16.17;;;281.70;2022.40;;;;;;5096423;28;20032;-70
2021/04/19 03:15:03;;;;;;;24.92;14.73;;;281.70;2048.00;;;;;;5096393;28;20024;-69
2021/04/19 03:17:29;;;;;;;17.67;13.20;;;281.70;2048.00;;;;;;5096292;28;20048;-68
2021/04/19 03:20:06;;;;;;;16.95;13.00;;;281.70;2022.40;;;;;;5096327;28;20020;-68
2021/04/19 03:22:35;;;;;;;18.50;12.63;;;281.80;2022.40;;;;;;5095033;28;20036;-68
2021/04/19 03:25:02;;;;;;;14.82;11.48;;;281.80;2022.40;;;;;;5096192;28;20146;-68
2021/04/19 03:27:30;;;;;;;15.88;12.02;;;281.80;2022.40;;;;;;5095487;28;20048;-68
2021/04/19 03:29:57;;;;;;;16.48;12.93;;;281.70;2022.40;;;;;;5096200;28;20027;-67
2021/04/19 03:32:27;;;;;;;14.75;12.57;;;281.70;2022.40;;;;;;5095518;28;20024;-67
2021/04/19 03:34:53;;;;;;;15.60;13.35;;;281.70;2022.40;;;;;;5077522;28;20414;-68
2021/04/19 03:37:25;;;;;;;14.82;12.80;;;281.60;2022.40;;;;;;5095892;28;20103;-67
2021/04/19 03:40:03;;;;;;;15.55;13.35;;;281.60;2048.00;;;;;;5095982;28;20379;-67
2021/04/19 03:42:30;;;;;;;15.65;13.55;;;281.60;2048.00;;;;;;5095619;28;20051;-69
2021/04/19 03:44:57;;;;;;;15.85;13.50;;;281.60;2022.40;;;;;;5095849;28;20020;-68
2021/04/19 03:47:25;;;;;;;14.85;12.75;;;256.90;2022.40;;;;;;5095760;28;20063;-68
2021/04/19 03:49:55;;;;;;;16.92;13.70;;;281.60;2048.00;;;;;;5095893;28;20024;-68
2021/04/19 03:52:25;;;;;;;16.05;13.60;;;281.60;2048.00;;;;;;5095560;28;20020;-68
2021/04/19 03:54:52;;;;;;;15.38;12.63;;;256.90;2022.40;;;;;;5095633;28;20020;-68
2021/04/19 03:57:21;;;;;;;21.98;13.02;;;256.90;1996.80;;;;;;5095555;28;20028;-68
2021/04/19 03:59:56;;;;;;;17.00;13.27;;;256.90;1996.80;;;;;;5095503;28;20514;-67
2021/04/19 04:02:22;;;;;;;17.85;12.65;;;281.60;2048.00;;;;;;5095498;28;20044;-67
2021/04/19 04:04:50;;;;;;;21.88;13.60;;;256.90;2022.40;;;;;;5095396;28;20105;-67
2021/04/19 04:07:17;;;;;;;15.77;13.02;;;256.90;2022.40;;;;;;5095015;28;20107;-67
2021/04/19 04:09:43;;;;;;;18.45;14.23;;;281.60;2048.00;;;;;;5095031;28;20026;-67
2021/04/19 04:12:11;;;;;;;18.33;14.55;;;281.60;2048.00;;;;;;5095725;28;20115;-67
2021/04/19 04:14:51;;;;;;;18.40;14.93;;;256.90;2022.40;;;;;;5094532;28;20024;-67
2021/04/19 04:17:18;;;;;;;20.52;15.27;;;281.60;2048.00;;;;;;5095059;28;20020;-67
2021/04/19 04:19:43;;;;;;;21.65;16.13;;;256.90;2022.40;;;;;;5094797;28;20024;-67
2021/04/19 04:22:10;;;;;;;16.80;13.63;;;281.60;2048.00;;;;;;5094878;28;20119;-67
2021/04/19 04:24:36;;;;;;;15.75;13.13;;;281.60;2048.00;;;;;;5094815;28;20021;-67
2021/04/19 04:27:02;;;;;;;16.17;13.85;;;281.60;2048.00;;;;;;5094439;28;20044;-67
2021/04/19 04:29:28;;;;;;;16.05;13.38;;;281.60;2022.40;;;;;;5094816;28;20023;-67
2021/04/19 04:31:54;;;;;;;14.35;12.48;;;281.60;2048.00;;;;;;5095074;28;20020;-67
2021/04/19 04:34:19;;;;;;;15.77;12.27;;;281.60;2022.40;;;;;;5094746;28;20024;-67
2021/04/19 04:36:45;;;;;;;15.73;12.88;;;281.60;2022.40;;;;;;5094711;28;20143;-67
2021/04/19 04:39:12;;;;;;;15.95;13.30;;;281.60;2022.40;;;;;;5094397;28;20478;-67
2021/04/19 04:41:37;;;;;;;18.77;13.13;;;281.70;2022.40;;;;;;5094483;28;20586;-67
2021/04/19 04:44:06;;;;;;;17.15;14.25;;;281.70;2022.40;;;;;;5093449;28;20040;-67
2021/04/19 04:46:45;;;;;;;19.70;14.95;;;281.70;2022.40;;;;;;5094502;28;20032;-67
2021/04/19 04:49:26;;;;;;;43.72;33.63;;;281.70;2022.40;;;;;;5094460;28;20028;-67
2021/04/19 04:51:55;;;;;;;83.63;66.72;;;281.70;2022.40;;;;;;5094571;28;20095;-67
2021/04/19 04:54:22;;;;;;;77.03;64.93;;;281.70;2022.40;;;;;;5094288;28;20028;-67
2021/04/19 04:56:55;;;;;;;58.17;50.83;;;281.70;2048.00;;;;;;5094280;28;20038;-67
2021/04/19 04:59:22;;;;;;;47.88;41.75;;;281.70;2048.00;;;;;;5094252;28;20073;-68
2021/04/19 05:01:50;;;;;;;35.63;30.60;;;281.80;2022.40;;;;;;5094378;28;20036;-68
2021/04/19 05:04:16;;;;;;;24.08;21.48;;;281.80;2048.00;;;;;;5076306;28;20032;-68
2021/04/19 05:06:43;;;;;;;24.65;20.00;;;281.80;2022.40;;;;;;5094186;28;20036;-68
2021/04/19 05:09:10;;;;;;;20.25;16.75;;;281.80;2022.40;;;;;;5094297;28;20481;-68
2021/04/19 05:11:40;;;;;;;24.00;16.40;;;281.80;2022.40;;;;;;5094080;28;20028;-68
2021/04/19 05:14:05;;;;;;;15.93;13.43;;;281.80;2048.00;;;;;;5094313;28;20070;-68
2021/04/19 05:16:32;;;;;;;16.95;12.60;;;281.80;2022.40;;;;;;5093600;28;20477;-68
2021/04/19 05:18:59;;;;;;;19.25;14.50;;;281.80;2022.40;;;;;;5094099;28;20020;-68
2021/04/19 05:21:24;;;;;;;16.77;13.43;;;281.80;2022.40;;;;;;5093945;28;20031;-68
2021/04/19 05:23:50;;;;;;;15.88;13.45;;;281.90;2022.40;;;;;;5094035;28;20028;-68
2021/04/19 05:26:16;;;;;;;23.40;16.63;;;281.90;2022.40;;;;;;5075649;28;20051;-68
2021/04/19 05:28:43;;;;;;;23.42;17.77;;;281.90;2022.40;;;;;;5094397;28;20111;-69
2021/04/19 05:31:10;;;;;;;24.48;17.25;;;281.90;2022.40;;;;;;5093177;28;20021;-68
2021/04/19 05:33:36;;;;;;;28.20;19.75;;;282.00;2022.40;;;;;;5094025;28;20070;-68
2021/04/19 05:36:15;;;;;;;23.60;17.15;;;282.00;2022.40;;;;;;5093747;28;20020;-68
2021/04/19 05:38:43;;;;;;;20.95;15.82;;;282.00;2022.40;;;;;;5093873;28;20028;-68
2021/04/19 05:41:13;;;;;;;19.30;15.00;;;282.00;2022.40;;;;;;5093682;28;20016;-68
2021/04/19 05:43:43;;;;;;;17.65;14.32;;;282.10;2048.00;;;;;;5093861;28;20035;-63
2021/04/19 05:46:13;;;;;;;16.85;14.10;;;282.00;2022.40;;;;;;5075998;28;20024;-65
2021/04/19 05:48:40;;;;;;;17.17;13.95;;;282.00;2022.40;;;;;;5093962;28;20090;-65
2021/04/19 05:51:17;;;;;;;20.83;14.98;;;282.10;2022.40;;;;;;5093820;28;20027;-65
2021/04/19 05:53:43;;;;;;;16.98;13.98;;;282.10;2022.40;;;;;;5094341;28;20032;-65
2021/04/19 05:56:18;;;;;;;15.18;13.50;;;282.10;2022.40;;;;;;5097820;28;20028;-65
2021/04/19 05:59:00;;;;;;;20.02;14.00;;;282.00;2022.40;;;;;;5097526;28;20049;-65
2021/04/19 06:01:27;;;;;;;18.17;13.50;;;282.00;2022.40;;;;;;5097797;28;20038;-65
2021/04/19 06:04:08;;;;;;;21.33;13.57;;;282.00;2022.40;;;;;;5097669;28;20146;-68
2021/04/19 06:06:51;;;;;;;15.65;13.13;;;282.00;2022.40;;;;;;5097775;28;20028;-67
2021/04/19 06:09:23;;;;;;;15.70;13.27;;;282.10;2022.40;;;;;;5097858;28;20024;-66
2021/04/19 06:11:54;;;;;;;16.48;13.73;;;282.10;2022.40;;;;;;5097772;28;20395;-66
2021/04/19 06:14:28;;;;;;;17.38;13.63;;;282.10;2022.40;;;;;;5097559;28;20130;-66
2021/04/19 06:16:56;;;;;;;15.13;12.65;;;282.10;2022.40;;;;;;5097396;28;20107;-66
2021/04/19 06:19:23;;;;;;;16.83;14.98;;;282.10;2022.40;;;;;;5097213;28;20028;-66
2021/04/19 06:21:50;;;;;;;20.75;17.20;;;282.10;2022.40;;;;;;5097243;28;20028;-66
2021/04/19 06:24:16;;;;;;;18.38;16.20;;;282.10;2022.40;;;;;;5097392;28;20107;-66
2021/04/19 06:26:42;;;;;;;18.40;15.85;;;282.10;2022.40;;;;;;5096931;28;20044;-66
2021/04/19 06:29:08;;;;;;;18.27;14.98;;;282.10;2022.40;;;;;;5097100;28;20024;-66
2021/04/19 06:31:39;;;;;;;19.27;15.00;;;282.10;2022.40;;;;;;5097326;28;20031;-66
2021/04/19 06:34:10;;;;;;;16.67;14.63;;;282.20;2022.40;;;;;;5097159;28;20035;-66
2021/04/19 06:36:37;;;;;;;18.80;13.95;;;282.20;2022.40;;;;;;5078143;28;20482;-66
2021/04/19 06:39:07;;;;;;;16.15;13.15;;;282.30;2022.40;;;;;;5096876;28;20020;-66
2021/04/19 06:41:33;;;;;;;19.90;15.75;;;282.30;2022.40;;;;;;5079180;28;20563;-66
2021/04/19 06:44:00;;;;;;;18.30;15.45;;;282.30;2022.40;;;;;;5096901;28;20028;-66
2021/04/19 06:46:29;;;;;;;16.73;14.65;;;282.40;2022.40;;;;;;5078716;28;20343;-66
2021/04/19 06:48:56;;;;;;;21.88;14.43;;;282.50;1996.80;;;;;;5096808;28;20024;-65
2021/04/19 06:51:22;;;;;;;14.75;12.70;;;282.50;1996.80;;;;;;5096848;28;20022;-66
2021/04/19 06:53:56;;;;;;;16.02;12.50;;;307.20;2022.40;;;;;;5096514;28;20481;-66
2021/04/19 06:56:25;;;;;;;21.63;14.60;;;307.30;2022.40;;;;;;5096437;28;20035;-66
2021/04/19 06:58:52;;;;;;;16.50;12.77;;;307.30;2022.40;;;;;;5096678;28;20194;-66
2021/04/19 07:01:23;;;;;;;22.70;15.13;;;307.40;1996.80;;;;;;5096455;28;20034;-63
2021/04/19 07:03:55;;;;;;;40.58;19.08;;;307.40;1996.80;;;;;;5096679;28;20461;-63
2021/04/19 07:06:26;;;;;;;36.38;19.08;;;307.40;1996.80;;;;;;5095524;28;20470;-64
2021/04/19 07:09:01;;;;;;;31.85;18.90;;;307.40;2048.00;;;;;;5096437;28;20032;-63
2021/04/19 07:11:33;;;;;;;23.67;16.50;;;307.30;1996.80;;;;;;5096228;28;20031;-64
2021/04/19 07:14:00;;;;;;;26.55;15.90;;;307.30;1996.80;;;;;;5095970;28;20048;-63
2021/04/19 07:16:27;;;;;;;19.98;15.07;;;307.30;1996.80;;;;;;5096173;28;20028;-63
2021/04/19 07:18:52;;;;;;;25.42;18.33;;;307.20;1996.80;;;;;;5093332;28;20457;-62
2021/04/19 07:21:18;;;;;;;38.22;24.58;;;307.30;1996.80;;;;;;5074322;28;20027;-62
2021/04/19 07:23:44;;;;;;;51.80;34.40;;;307.20;1996.80;;;;;;5074763;28;20101;-63
2021/04/19 07:26:10;;;;;;;53.05;39.13;;;307.20;2022.40;;;;;;5074729;28;20040;-63
2021/04/19 07:28:37;;;;;;;67.22;49.55;;;307.30;1996.80;;;;;;5074707;28;20158;-62
2021/04/19 07:31:05;;;;;;;44.15;30.83;;;307.20;2022.40;;;;;;5072220;28;20017;-63
2021/04/19 07:33:33;;;;;;;27.58;20.13;;;307.20;1996.80;;;;;;5074871;28;20012;-62
2021/04/19 07:36:19;;;;;;;20.95;17.42;;;307.20;2022.40;;;;;;5074841;28;20381;-63
2021/04/19 07:38:45;;;;;;;23.17;18.52;;;307.20;1996.80;;;;;;5072618;28;20389;-62
2021/04/19 07:41:12;;;;;;;21.38;17.85;;;307.30;1996.80;;;;;;5074529;28;20032;-62
2021/04/19 07:43:39;;;;;;;27.95;21.10;;;307.30;1996.80;;;;;;5056757;28;20043;-62
2021/04/19 07:46:15;;;;;;;26.88;19.13;;;307.20;1996.80;;;;;;5075395;28;20476;-62
2021/04/19 07:48:46;;;;;;;25.35;20.33;;;307.20;1996.80;;;;;;5075318;28;20470;-66
2021/04/19 07:51:34;;;;;;;44.90;21.95;;;307.20;1996.80;;;;;;5075535;28;20024;-63
2021/04/19 07:54:23;;;;;;;28.90;21.13;;;307.20;2022.40;;;;;;5075471;28;20515;-63
2021/04/19 07:56:54;;;;;;;29.20;21.63;;;307.20;2022.40;;;;;;5075527;28;20032;-63
2021/04/19 07:59:25;;;;;;;35.58;24.17;;;307.20;1996.80;;;;;;5075290;28;20525;-63
2021/04/19 08:02:00;;;;;;;32.95;25.20;;;307.20;1996.80;;;;;;5075044;28;20082;-63
2021/04/19 08:04:25;;;;;;;;;;;307.20;1996.80;;;;;;5075832;28;20024;-63
2021/04/19 08:06:51;;;;;;;35.65;21.67;;;307.30;1996.80;;;;;;5075211;28;19905;-63
2021/04/19 08:09:24;;;;;;;30.88;22.25;;;307.30;1971.20;;;;;;5074603;28;20374;-63
2021/04/19 08:11:56;;;;;;;31.90;22.15;;;307.30;1971.20;;;;;;5074464;28;20027;-63
2021/04/19 08:14:22;;;;;;;36.13;24.02;;;307.40;1971.20;;;;;;5075090;28;20036;-63
2021/04/19 08:17:12;;;;;;;31.00;23.25;;;307.40;1971.20;;;;;;5074917;28;20024;-63
2021/04/19 08:19:40;;;;;;;33.00;22.52;;;307.50;1971.20;;;;;;5074926;28;20032;-63
2021/04/19 08:22:20;;;;;;;29.38;21.08;;;307.60;1945.60;;;;;;5074786;28;20037;-63
2021/04/19 08:24:46;;;;;;;29.60;19.30;;;307.60;1971.20;;;;;;5074632;28;20419;-63
2021/04/19 08:27:20;;;;;;;33.10;22.60;;;307.50;1920.00;;;;;;5074600;28;20093;-62
2021/04/19 08:29:47;;;;;;;38.60;22.83;;;307.60;1945.60;;;;;;5074699;28;20025;-63
2021/04/19 08:32:22;;;;;;;45.55;23.27;;;307.50;1945.60;;;;;;5074657;28;20025;-63
2021/04/19 08:34:49;;;;;;;40.88;27.30;;;307.50;1945.60;;;;;;5074485;28;20077;-63
2021/04/19 08:37:21;;;;;;;35.42;27.70;;;307.50;1971.20;;;;;;5074129;28;20056;-63
2021/04/19 08:39:47;;;;;;;34.42;24.42;;;307.50;1971.20;;;;;;5074485;28;20100;-62
2021/04/19 08:42:14;;;;;;;32.30;22.33;;;307.40;1971.20;;;;;;5074171;28;20054;-63
2021/04/19 08:44:41;;;;;;;31.25;18.67;;;307.40;1971.20;;;;;;5074329;28;20032;-63
2021/04/19 08:47:08;;;;;;;27.30;17.73;;;307.40;1971.20;;;;;;5074199;28;20150;-62
2021/04/19 08:49:34;;;;;;;29.75;20.00;;;307.40;1971.20;;;;;;5074330;28;20028;-62
2021/04/19 08:52:01;;;;;;;32.83;19.90;;;307.40;1971.20;;;;;;5074138;28;20028;-63
2021/04/19 08:54:27;;;;;;;28.33;18.08;;;307.40;1996.80;;;;;;5073952;28;20100;-63
2021/04/19 08:56:54;;;;;;;32.90;18.77;;;307.40;1996.80;;;;;;5056221;28;20029;-63
2021/04/19 08:59:22;;;;;;;28.33;19.20;;;307.40;1996.80;;;;;;5074169;28;20378;-63
2021/04/19 09:01:49;;;;;;;34.78;22.35;;;307.30;1971.20;;;;;;5074097;28;20040;-63
2021/04/19 09:04:22;;;;;;;39.10;21.98;;;307.30;1971.20;;;;;;5074118;28;20046;-63
2021/04/19 09:06:49;;;;;;;26.42;18.83;;;307.30;1996.80;;;;;;5073873;28;20032;-63
2021/04/19 09:09:31;;;;;;;28.88;18.13;;;307.20;1971.20;;;;;;5073875;28;20053;-63
2021/04/19 09:11:58;;;;;;;37.85;18.08;;;307.20;1996.80;;;;;;5073889;28;20024;-62
2021/04/19 09:14:33;;;;;;;34.92;18.38;;;307.20;1996.80;;;;;;5073714;28;20083;-63
2021/04/19 09:17:01;;;;;;;30.98;17.20;;;307.20;2022.40;;;;;;5073956;28;20469;-62
2021/04/19 09:19:27;;;;;;;25.10;17.10;;;307.20;1996.80;;;;;;5073935;28;20028;-62
2021/04/19 09:21:52;;;;;;;20.35;15.38;;;307.20;1996.80;;;;;;5073587;28;20073;-63
2021/04/19 09:24:20;;;;;;;28.05;15.55;;;307.20;1996.80;;;;;;5073727;28;20020;-62
2021/04/19 09:26:48;;;;;;;23.92;13.38;;;307.20;1996.80;;;;;;5073841;28;20523;-63
2021/04/19 09:29:25;;;;;;;24.00;12.93;;;307.20;1996.80;;;;;;5073162;28;20039;-62
2021/04/19 09:32:03;;;;;;;29.10;15.10;;;307.20;1996.80;;;;;;5073688;28;20539;-63
2021/04/19 09:34:38;;;;;;;24.40;15.50;;;307.20;1996.80;;;;;;5073769;28;20485;-62
2021/04/19 09:37:04;;;;;;;21.52;14.98;;;307.20;2022.40;;;;;;5073444;28;20489;-62
2021/04/19 09:39:58;;;;;;;20.20;14.43;;;307.20;2022.40;;;;;;5073679;28;20028;-63
2021/04/19 09:43:02;;;;;;;22.35;14.18;;;307.20;1996.80;;;;;;5073567;28;20048;-63
2021/04/19 09:45:46;;;;;;;15.07;12.57;;;307.20;2022.40;;;;;;5073666;28;20028;-63
2021/04/19 09:48:27;;;;;;;16.98;13.18;;;307.20;2022.40;;;;;;5073620;28;20369;-63
2021/04/19 09:51:00;;;;;;;19.73;15.30;;;307.20;2022.40;;;;;;5073514;28;20056;-62
2021/04/19 09:53:28;;;;;;;25.60;15.75;;;307.20;1996.80;;;;;;5073563;28;20031;-62
2021/04/19 09:55:55;;;;;;;25.88;16.45;;;307.20;1996.80;;;;;;5073497;28;20044;-62
2021/04/19 09:58:21;;;;;;;29.02;20.75;;;307.20;2022.40;;;;;;5073478;28;20032;-62
2021/04/19 10:00:57;;;;;;;37.08;23.52;;;307.20;1996.80;;;;;;5073782;28;20033;-61
2021/04/19 10:03:23;;;;;;;33.88;23.42;;;307.20;2022.40;;;;;;5071416;28;20047;-62
2021/04/19 10:05:51;;;;;;;33.22;22.27;;;307.20;2022.40;;;;;;5071813;28;20027;-61
2021/04/19 10:08:18;;;;;;;31.95;19.90;;;307.20;2048.00;;;;;;5072550;28;20055;-63
2021/04/19 10:10:54;;;;;;;31.27;20.40;;;307.20;2124.80;;;;;;5073420;28;20025;-62
2021/04/19 10:13:32;;;;;;;40.20;27.67;;;307.40;2099.20;;;;;;5073278;28;20021;-62
2021/04/19 10:16:10;;;;;;;33.80;25.15;;;307.40;2073.60;;;;;;5072095;28;20068;-64
2021/04/19 10:18:41;;;;;;;34.20;23.70;;;307.30;2022.40;;;;;;5069982;28;20070;-62
2021/04/19 10:21:09;;;;;;;36.90;26.02;;;307.30;2022.40;;;;;;5071490;28;20055;-62
2021/04/19 10:23:43;;;;;;;61.95;39.83;;;307.30;2022.40;;;;;;5071621;28;20067;-61
2021/04/19 10:26:10;;;;;;;58.28;38.83;;;307.30;2022.40;;;;;;5068990;28;20036;-61
2021/04/19 10:28:44;;;;;;;51.60;35.83;;;307.20;2048.00;;;;;;5072625;28;20106;-62
2021/04/19 10:31:15;;;;;;;52.45;35.97;;;307.20;2048.00;;;;;;5072414;28;20111;-61
2021/04/19 10:33:44;;;;;;;59.35;36.15;;;307.20;2048.00;;;;;;5073142;28;20025;-63
2021/04/19 10:36:13;;;;;;;67.20;40.20;;;307.20;2048.00;;;;;;5073316;28;20016;-65
2021/04/19 10:38:39;;;;;;;96.45;51.17;;;307.20;2048.00;;;;;;5072974;28;20370;-64
2021/04/19 10:41:06;;;;;;;290.70;154.73;;;307.20;2048.00;;;;;;5073807;28;20028;-63
2021/04/19 10:43:32;;;;;;;252.48;130.07;;;307.20;2048.00;;;;;;5076245;28;20111;-62
2021/04/19 10:45:58;;;;;;;170.82;93.07;;;307.20;2073.60;;;;;;5076519;28;20036;-62
2021/04/19 10:48:27;;;;;;;78.25;49.70;;;307.20;2048.00;;;;;;5076564;28;20020;-63
2021/04/19 10:50:56;;;;;;;93.93;59.67;;;307.20;2048.00;;;;;;5076342;28;20373;-60
2021/04/19 10:53:36;;;;;;;47.85;32.22;;;307.40;2099.20;;;;;;5076591;28;20410;-62
2021/04/19 10:56:02;;;;;;;44.30;31.33;;;307.40;2048.00;;;;;;5076438;28;20029;-64
2021/04/19 10:58:32;;;;;;;48.60;34.30;;;307.40;2048.00;;;;;;5076359;28;20057;-62
2021/04/19 11:00:58;;;;;;;64.03;44.05;;;307.40;2048.00;;;;;;5076402;28;20028;-68
2021/04/19 11:03:33;;;;;;;60.55;39.90;;;307.40;2022.40;;;;;;5075968;28;20093;-63
2021/04/19 11:06:03;;;;;;;51.78;38.97;;;307.40;1996.80;;;;;;5076490;28;20020;-63
2021/04/19 11:08:57;;;;;;;43.08;31.33;;;307.40;1996.80;;;;;;5076108;28;20024;-62
2021/04/19 11:11:26;;;;;;;125.93;100.30;;;307.40;1971.20;;;;;;5076196;28;20063;-62
2021/04/19 11:13:53;;;;;;;73.93;57.63;;;307.40;1971.20;;;;;;5076085;28;20067;-62
2021/04/19 11:16:23;;;;;;;84.53;57.40;;;307.50;1971.20;;;;;;5057689;28;20024;-62
2021/04/19 11:18:50;;;;;;;74.50;54.72;;;307.50;1971.20;;;;;;5076090;28;20024;-62
2021/04/19 11:21:29;;;;;;;62.50;47.35;;;307.50;1945.60;;;;;;5075868;28;20040;-69
2021/04/19 11:24:12;;;;;;;40.78;30.50;;;307.60;1920.00;;;;;;5076002;28;20043;-62
2021/04/19 11:26:39;;;;;;;29.67;22.30;;;307.60;1894.40;;;;;;5075774;28;20119;-62
2021/04/19 11:29:06;;;;;;;32.72;24.05;;;307.70;1894.40;;;;;;5075928;28;20028;-62
2021/04/19 11:31:44;;;;;;;59.22;41.53;;;307.70;1894.40;;;;;;5075516;28;20028;-63
2021/04/19 11:34:13;;;;;;;66.47;49.60;;;307.80;1894.40;;;;;;5075772;28;20028;-60
2021/04/19 11:36:44;;;;;;;42.17;32.88;;;307.90;1894.40;;;;;;5075785;28;20103;-63
2021/04/19 11:39:17;;;;;;;42.30;29.50;;;308.00;1920.00;;;;;;5075780;28;20013;-64
2021/04/19 11:42:03;;;;;;;39.33;30.02;;;308.00;1920.00;;;;;;5075335;28;20035;-61
2021/04/19 11:44:49;;;;;;;37.47;27.35;;;308.10;1920.00;;;;;;5074628;28;20600;-62
2021/04/19 11:47:16;;;;;;;41.22;29.67;;;308.10;1920.00;;;;;;5074242;28;20359;-62
2021/04/19 11:49:42;;;;;;;43.15;32.10;;;332.80;1945.60;;;;;;5075599;28;20024;-62
2021/04/19 11:52:07;;;;;;;43.20;29.75;;;332.80;1945.60;;;;;;5074919;28;20024;-62
2021/04/19 11:54:33;;;;;;;38.10;27.95;;;332.90;1920.00;;;;;;5075560;28;20081;-63
2021/04/19 11:56:59;;;;;;;36.58;26.83;;;332.90;1920.00;;;;;;5075013;28;20021;-62
2021/04/19 11:59:24;;;;;;;38.60;29.05;;;333.00;1920.00;;;;;;5074982;28;20032;-62
2021/04/19 12:01:50;;;;;;;43.58;29.65;;;333.00;1920.00;;;;;;5075339;28;20063;-62
2021/04/19 12:04:16;;;;;;;39.80;29.92;;;333.10;1920.00;;;;;;5056825;28;20050;-63
2021/04/19 12:06:41;;;;;;;35.85;27.25;;;333.10;1920.00;;;;;;5074483;28;20103;-62
2021/04/19 12:09:07;;;;;;;35.47;26.67;;;333.20;1920.00;;;;;;5075205;28;20057;-62
2021/04/19 12:11:33;;;;;;;37.88;27.27;;;333.30;1894.40;;;;;;5074987;28;20036;-62